Time;durP1;ratioP1;P1;durP2;ratioP2;P2;SDS_P1;SDS_P2;PMS_P1;PMS_P2;Temp;Humidity;BMP_temperature;BMP_pressure;BME280_temperature;BME280_humidity;BME280_pressure;Samples;Min_cycle;Max_cycle;Signal;HPM_P1;HPM_P2
2021/01/25 00:00:40;;;;;;;22.23;10.43;;;;;;;0.54;100.00;96517.31;5013149;28;19919;-78
2021/01/25 00:03:06;;;;;;;24.85;11.85;;;;;;;0.63;100.00;96528.34;5013224;28;20029;-77
2021/01/25 00:05:31;;;;;;;23.60;10.45;;;;;;;0.47;100.00;96521.34;5030367;28;20037;-76
2021/01/25 00:07:57;;;;;;;26.42;10.68;;;;;;;0.44;100.00;96506.53;4995832;28;20057;-79
2021/01/25 00:10:22;;;;;;;;;;;;;;;0.56;100.00;96525.13;4996451;28;20061;-78
2021/01/25 00:12:48;;;;;;;25.55;9.45;;;;;;;0.48;100.00;96528.31;5014786;28;19917;-76
2021/01/25 00:15:13;;;;;;;22.50;9.23;;;;;;;0.57;100.00;96521.34;5014803;28;20246;-77
2021/01/25 00:17:39;;;;;;;29.45;9.15;;;;;;;0.66;100.00;96519.72;5010854;28;20030;-79
2021/01/25 00:20:05;;;;;;;27.92;9.82;;;;;;;0.71;100.00;96506.31;4977731;28;20017;-77
2021/01/25 00:22:30;;;;;;;29.67;9.55;;;;;;;0.47;100.00;96515.97;4995239;28;20125;-85
2021/01/25 00:24:55;;;;;;;20.92;9.20;;;;;;;0.40;100.00;96512.72;4978592;28;20034;-80
2021/01/25 00:27:21;;;;;;;23.48;8.38;;;;;;;0.38;100.00;96512.97;4995647;28;20065;-79
2021/01/25 00:29:47;;;;;;;;;;;;;;;0.67;100.00;96521.34;4980032;28;20495;-82
2021/01/25 00:32:12;;;;;;;15.35;8.25;;;;;;;0.58;100.00;96522.97;4998863;28;20302;-84
2021/01/25 00:34:38;;;;;;;;;;;;;;;0.75;100.00;96534.25;4998301;28;20100;-84
2021/01/25 00:37:03;;;;;;;23.23;9.18;;;;;;;0.67;100.00;96532.13;4998666;28;19914;-82
2021/01/25 00:39:29;;;;;;;24.98;10.05;;;;;;;0.62;100.00;96539.38;4997855;28;20549;-86
2021/01/25 00:41:54;;;;;;;21.17;8.98;;;;;;;0.49;100.00;96529.94;4980438;28;20032;-84
2021/01/25 00:44:19;;;;;;;;;;;;;;;0.41;100.00;96543.91;4995841;28;20030;-86
2021/01/25 00:46:45;;;;;;;17.85;7.50;;;;;;;0.62;100.00;96534.81;5004085;28;19918;-85
2021/01/25 00:49:10;;;;;;;14.40;7.05;;;;;;;0.59;100.00;96534.53;4977998;28;20030;-85
2021/01/25 00:51:35;;;;;;;22.80;7.82;;;;;;;0.60;100.00;96531.56;4994001;28;20437;-83
2021/01/25 00:54:01;;;;;;;20.08;8.65;;;;;;;0.44;100.00;96525.34;4995939;28;20559;-87
2021/01/25 00:56:26;;;;;;;34.95;8.80;;;;;;;0.60;100.00;96542.31;4996466;28;20030;-86
2021/01/25 00:58:51;;;;;;;21.80;8.45;;;;;;;0.49;100.00;96540.72;4994999;28;20027;-84
2021/01/25 01:01:17;;;;;;;18.40;8.63;;;;;;;0.48;100.00;96528.31;4995897;28;20026;-85
2021/01/25 01:03:42;;;;;;;23.25;9.38;;;;;;;0.56;100.00;96525.13;4996626;28;20101;-86
2021/01/25 01:06:08;;;;;;;18.75;7.95;;;;;;;0.56;100.00;96537.75;4994670;28;20058;-85
2021/01/25 01:08:33;;;;;;;24.95;10.05;;;;;;;0.58;100.00;96530.22;4994674;28;20023;-86
2021/01/25 01:10:59;;;;;;;24.58;8.68;;;;;;;0.67;100.00;96540.19;4979737;28;20022;-84
2021/01/25 01:13:24;;;;;;;17.45;7.50;;;;;;;0.60;100.00;96539.63;4995223;28;20034;-89
2021/01/25 01:15:50;;;;;;;18.98;9.35;;;;;;;0.65;100.00;96560.38;4995756;28;20026;-85
2021/01/25 01:18:15;;;;;;;22.48;9.25;;;;;;;0.66;100.00;96565.47;4981689;28;20026;-87
2021/01/25 01:20:41;;;;;;;20.67;8.88;;;;;;;0.65;100.00;96555.81;4999083;28;20022;-86
2021/01/25 01:23:06;;;;;;;30.08;8.93;;;;;;;0.59;100.00;96559.56;4998031;28;20030;-88
2021/01/25 01:25:32;;;;;;;14.50;7.50;;;;;;;0.80;100.00;96563.06;4999544;28;20022;-86
2021/01/25 01:27:57;;;;;;;22.05;8.65;;;;;;;0.75;100.00;96555.78;4999758;28;20402;-86
2021/01/25 01:30:23;;;;;;;;;;;;;;;0.78;100.00;96563.34;5017084;28;20026;-83
2021/01/25 01:32:48;;;;;;;19.10;6.65;;;;;;;0.76;100.00;96572.75;4999113;28;20381;-90
2021/01/25 01:35:14;;;;;;;19.75;7.38;;;;;;;0.81;100.00;96560.13;4999321;28;20026;-87
2021/01/25 01:37:39;;;;;;;;;;;;;;;0.88;100.00;96565.22;5000347;28;20038;-87
2021/01/25 01:40:07;;;;;;;22.85;8.07;;;;;;;0.96;100.00;96568.22;4998609;28;19924;-86
2021/01/25 01:42:33;;;;;;;20.75;8.55;;;;;;;0.97;100.00;96577.88;5015643;28;20121;-90
2021/01/25 01:45:01;;;;;;;14.35;8.05;;;;;;;1.01;100.00;96573.59;5001146;28;20046;-89
2021/01/25 01:47:26;;;;;;;17.40;8.27;;;;;;;0.95;100.00;96581.91;5004040;28;20026;-88
2021/01/25 01:49:52;;;;;;;21.20;7.75;;;;;;;0.99;100.00;96578.44;5004228;28;20183;-89
2021/01/25 01:52:17;;;;;;;;;;;;;;;0.94;100.00;96581.09;5005800;28;20061;-87
2021/01/25 01:54:44;;;;;;;27.88;7.50;;;;;;;0.98;100.00;96576.81;5005402;28;19977;-86
2021/01/25 01:57:10;;;;;;;16.02;6.03;;;;;;;1.13;100.00;96583.28;5020498;28;20049;-86
2021/01/25 01:59:36;;;;;;;11.70;6.57;;;;;;;0.98;100.00;96582.19;5003029;28;20093;-86
2021/01/25 02:02:01;;;;;;;13.23;6.55;;;;;;;0.72;100.00;96556.31;4995364;28;20037;-87
2021/01/25 02:04:28;;;;;;;15.80;6.28;;;;;;;0.72;100.00;96579.75;4995684;28;20118;-82
2021/01/25 02:06:59;;;;;;;15.52;6.38;;;;;;;0.51;100.00;96571.63;4978909;28;20141;-86
2021/01/25 02:09:26;;;;;;;12.55;5.65;;;;;;;0.36;100.00;96568.91;4978297;28;20403;-85
2021/01/25 02:11:53;;;;;;;9.15;5.80;;;;;;;0.50;100.00;96601.50;4995804;28;20030;-86
2021/01/25 02:14:20;;;;;;;10.98;5.03;;;;;;;0.30;100.00;96586.09;4977695;28;20206;-85
2021/01/25 02:16:46;;;;;;;8.63;4.20;;;;;;;0.39;100.00;96611.41;4979049;28;20030;-90
2021/01/25 02:19:17;;;;;;;5.05;3.88;;;;;;;0.29;100.00;96621.31;4996372;28;20069;-84
2021/01/25 02:21:55;;;;;;;8.50;4.90;;;;;;;0.27;100.00;96621.59;4979092;28;20037;-85
2021/01/25 02:24:42;;;;;;;6.80;3.28;;;;;;;0.26;100.00;96625.34;4978855;28;20486;-85
2021/01/25 02:27:30;;;;;;;8.13;3.92;;;;;;;0.20;100.00;96629.06;4978868;28;20062;-84
2021/01/25 02:29:58;;;;;;;11.50;4.55;;;;;;;0.15;100.00;96606.75;4997289;28;20579;-84
2021/01/25 02:32:25;;;;;;;7.38;4.55;;;;;;;0.22;100.00;96620.75;4979298;28;20046;-86
2021/01/25 02:34:52;;;;;;;9.75;4.30;;;;;;;0.12;100.00;96621.53;4978253;28;20030;-88
2021/01/25 02:37:18;;;;;;;10.48;5.65;;;;;;;-0.02;100.00;96605.06;4979745;28;20034;-85
2021/01/25 02:39:45;;;;;;;10.00;4.97;;;;;;;0.21;100.00;96613.75;4996672;28;20030;-85
2021/01/25 02:42:11;;;;;;;13.77;4.72;;;;;;;0.19;100.00;96619.38;4981328;28;20026;-87
2021/01/25 02:44:38;;;;;;;9.73;5.50;;;;;;;-0.01;100.00;96606.69;4981933;28;20022;-86
2021/01/25 02:47:03;;;;;;;11.80;6.95;;;;;;;-0.19;100.00;96596.34;4966547;28;20373;-87
2021/01/25 02:49:29;;;;;;;11.65;6.95;;;;;;;-0.16;100.00;96617.31;4981399;28;20057;-88
2021/01/25 02:51:54;;;;;;;;;;;;;;;-0.08;100.00;96610.66;4991166;28;20468;-85
2021/01/25 02:54:19;;;;;;;11.25;5.95;;;;;;;-0.03;100.00;96621.41;4980833;28;19914;-82
2021/01/25 02:56:47;;;;;;;11.75;7.30;;;;;;;0.03;100.00;96620.41;4997470;28;20056;-87
2021/01/25 02:59:12;;;;;;;17.13;7.70;;;;;;;0.02;100.00;96593.78;4997336;28;20038;-86
2021/01/25 03:01:38;;;;;;;14.50;7.38;;;;;;;0.10;100.00;96609.38;4996356;28;20428;-84
2021/01/25 03:04:04;;;;;;;;;;;;;;;0.14;100.00;96605.13;4996590;28;20026;-86
2021/01/25 03:06:30;;;;;;;8.85;6.10;;;;;;;0.08;100.00;96603.47;4980714;28;20268;-84
2021/01/25 03:08:55;;;;;;;9.23;6.30;;;;;;;-0.04;100.00;96593.75;4996597;28;20022;-88
2021/01/25 03:11:20;;;;;;;;;;;;;;;-0.11;100.00;96598.56;4997608;28;20032;-84
2021/01/25 03:13:46;;;;;;;9.77;6.03;;;;;;;-0.03;100.00;96592.69;4976787;28;20353;-86
2021/01/25 03:16:15;;;;;;;13.27;6.50;;;;;;;0.04;100.00;96581.69;4976622;28;20035;-87
2021/01/25 03:18:41;;;;;;;12.85;6.57;;;;;;;0.11;100.00;96597.56;4992793;28;20046;-86
2021/01/25 03:21:07;;;;;;;10.98;6.80;;;;;;;0.14;100.00;96591.69;4992652;28;20058;-83
2021/01/25 03:23:32;;;;;;;13.52;6.20;;;;;;;0.11;100.00;96603.75;4991581;28;20045;-85
2021/01/25 03:25:58;;;;;;;13.85;7.20;;;;;;;0.19;100.00;96611.31;4977427;28;20395;-87
2021/01/25 03:28:23;;;;;;;;;;;;;;;0.16;100.00;96609.16;4992951;28;20027;-89
2021/01/25 03:30:48;;;;;;;12.48;8.23;;;;;;;0.05;100.00;96604.81;4977861;28;19914;-89
2021/01/25 03:33:14;;;;;;;9.90;6.40;;;;;;;-0.07;100.00;96596.97;4991037;28;20027;-83
2021/01/25 03:35:39;;;;;;;11.85;7.03;;;;;;;-0.09;100.00;96599.09;4991563;28;20048;-84
2021/01/25 03:38:05;;;;;;;8.50;5.25;;;;;;;-0.13;100.00;96608.78;4975151;28;20034;-84
2021/01/25 03:40:30;;;;;;;10.30;7.63;;;;;;;-0.01;100.00;96605.88;4992392;28;20046;-90
2021/01/25 03:42:56;;;;;;;11.23;6.13;;;;;;;-0.11;100.00;96587.81;4976655;28;20031;-85
2021/01/25 03:45:21;;;;;;;8.27;4.68;;;;;;;-0.04;100.00;96607.19;4991489;28;20034;-87
2021/01/25 03:47:47;;;;;;;;;;;;;;;0.12;100.00;96616.16;4991728;28;20094;-82
2021/01/25 03:50:14;;;;;;;10.60;5.78;;;;;;;-0.09;100.00;96598.28;4975794;28;20261;-87
2021/01/25 03:52:39;;;;;;;11.13;6.45;;;;;;;0.06;100.00;96594.88;4991948;28;20038;-87
2021/01/25 03:55:05;;;;;;;12.55;6.30;;;;;;;0.13;100.00;96607.00;4991385;28;20090;-89
2021/01/25 03:57:30;;;;;;;11.65;6.55;;;;;;;0.08;100.00;96622.28;4976153;28;20033;-88
2021/01/25 03:59:56;;;;;;;10.07;6.50;;;;;;;0.27;100.00;96612.69;4974101;28;20121;-82
2021/01/25 04:02:21;;;;;;;12.50;6.97;;;;;;;0.15;100.00;96596.00;4988251;28;20528;-79
2021/01/25 04:04:47;;;;;;;13.18;7.05;;;;;;;0.19;100.00;96618.59;4971116;28;20034;-79
2021/01/25 04:07:12;;;;;;;8.60;6.35;;;;;;;-0.01;100.00;96589.75;4971872;28;20530;-78
2021/01/25 04:09:39;;;;;;;9.05;6.55;;;;;;;-0.03;100.00;96611.47;4987639;28;20053;-78
2021/01/25 04:12:05;;;;;;;10.93;7.05;;;;;;;0.16;100.00;96627.19;4972400;28;20054;-77
2021/01/25 04:14:31;;;;;;;12.10;7.50;;;;;;;0.15;100.00;96620.19;4983152;28;20082;-77
2021/01/25 04:16:56;;;;;;;18.38;7.60;;;;;;;0.14;100.00;96615.88;4990601;28;20061;-79
2021/01/25 04:19:22;;;;;;;10.82;7.15;;;;;;;0.14;100.00;96618.56;4991559;28;20502;-77
2021/01/25 04:21:47;;;;;;;7.78;6.05;;;;;;;-0.05;100.00;96626.25;4991204;28;20454;-76
2021/01/25 04:24:12;;;;;;;10.95;8.05;;;;;;;-0.16;100.00;96633.44;4989934;28;20606;-78
2021/01/25 04:26:41;;;;;;;9.13;6.55;;;;;;;-0.18;100.00;96638.28;4990324;28;20030;-76
2021/01/25 04:29:09;;;;;;;8.93;6.45;;;;;;;-0.27;100.00;96634.47;4990119;28;20368;-79
2021/01/25 04:31:34;;;;;;;15.82;7.30;;;;;;;-0.25;100.00;96629.63;4991523;28;20034;-77
2021/01/25 04:34:00;;;;;;;10.82;6.45;;;;;;;-0.18;100.00;96621.34;4991874;28;20030;-79
2021/01/25 04:36:26;;;;;;;10.70;6.68;;;;;;;-0.26;100.00;96621.84;4991854;28;20023;-79
2021/01/25 04:38:52;;;;;;;12.63;6.65;;;;;;;-0.30;100.00;96629.63;4991641;28;20026;-77
2021/01/25 04:41:17;;;;;;;10.10;6.00;;;;;;;-0.20;100.00;96629.69;4990299;28;20129;-76
2021/01/25 04:43:43;;;;;;;7.65;6.32;;;;;;;-0.18;100.00;96632.91;4991303;28;20066;-77
2021/01/25 04:46:08;;;;;;;11.15;7.53;;;;;;;-0.38;100.00;96592.50;4990152;28;20122;-77
2021/01/25 04:48:36;;;;;;;10.68;6.18;;;;;;;-0.46;100.00;96613.66;4991546;28;20031;-76
2021/01/25 04:51:01;;;;;;;9.65;6.90;;;;;;;-0.23;100.00;96635.56;4989891;28;20014;-76
2021/01/25 04:53:28;;;;;;;8.90;5.82;;;;;;;-0.22;100.00;96614.91;4989817;28;20596;-75
2021/01/25 04:55:54;;;;;;;8.60;5.60;;;;;;;-0.28;100.00;96622.09;4973848;28;20027;-80
2021/01/25 04:58:19;;;;;;;8.07;6.57;;;;;;;-0.01;100.00;96625.50;4993628;28;20054;-81
2021/01/25 05:00:45;;;;;;;11.90;7.40;;;;;;;0.14;100.00;96635.50;4993303;28;20023;-78
2021/01/25 05:03:11;;;;;;;11.60;7.88;;;;;;;0.19;100.00;96640.88;4993259;28;20030;-79
2021/01/25 05:05:36;;;;;;;14.25;7.63;;;;;;;-0.05;100.00;96632.44;4993191;28;20027;-77
2021/01/25 05:08:02;;;;;;;9.80;5.32;;;;;;;-0.08;99.50;96630.28;4993854;28;20388;-77
2021/01/25 05:10:29;;;;;;;8.27;5.75;;;;;;;-0.13;99.37;96632.94;4994353;28;20031;-77
2021/01/25 05:12:54;;;;;;;9.45;6.32;;;;;;;-0.26;99.82;96632.59;4994026;28;20039;-77
2021/01/25 05:15:31;;;;;;;9.10;5.50;;;;;;;-0.22;100.00;96634.47;4991578;28;20045;-77
2021/01/25 05:18:00;;;;;;;12.43;5.95;;;;;;;-0.35;100.00;96637.66;4994519;28;20109;-79
2021/01/25 05:20:30;;;;;;;10.10;6.55;;;;;;;-0.35;100.00;96632.28;4992687;28;20105;-78
2021/01/25 05:22:58;;;;;;;10.95;5.85;;;;;;;-0.28;100.00;96648.16;4994130;28;20097;-79
2021/01/25 05:25:29;;;;;;;9.75;6.32;;;;;;;-0.01;100.00;96654.22;4976440;28;20110;-78
2021/01/25 05:27:59;;;;;;;10.02;6.35;;;;;;;-0.03;100.00;96651.78;4992836;28;20059;-81
2021/01/25 05:30:25;;;;;;;9.63;6.82;;;;;;;0.15;100.00;96663.19;4976515;28;20403;-76
2021/01/25 05:32:53;;;;;;;7.70;6.13;;;;;;;0.20;100.00;96658.63;4976326;28;20042;-77
2021/01/25 05:35:22;;;;;;;8.45;6.22;;;;;;;0.16;100.00;96654.06;4976535;28;20453;-77
2021/01/25 05:37:52;;;;;;;10.88;6.20;;;;;;;0.02;100.00;96647.53;4994246;28;20034;-77
2021/01/25 05:40:21;;;;;;;9.63;6.15;;;;;;;0.12;100.00;96642.22;4992655;28;20489;-77
2021/01/25 05:42:47;;;;;;;10.20;5.78;;;;;;;0.09;100.00;96640.03;4994010;28;20022;-76
2021/01/25 05:45:12;;;;;;;6.68;5.05;;;;;;;0.19;100.00;96646.25;4993870;28;20049;-81
2021/01/25 05:47:52;;;;;;;7.28;5.15;;;;;;;0.06;99.60;96657.50;4994448;28;20030;-77
2021/01/25 05:50:34;;;;;;;7.57;5.25;;;;;;;0.19;100.00;96658.91;4992022;28;20121;-80
2021/01/25 05:53:02;;;;;;;10.25;5.20;;;;;;;0.43;99.14;96646.66;4992066;28;20170;-78
2021/01/25 05:55:28;;;;;;;8.50;5.88;;;;;;;0.03;99.09;96662.59;4993145;28;20140;-77
2021/01/25 05:57:54;;;;;;;9.63;7.18;;;;;;;-0.14;99.79;96650.13;4993206;28;20027;-76
2021/01/25 06:00:20;;;;;;;10.95;6.80;;;;;;;-0.07;100.00;96664.16;4978381;28;20019;-77
2021/01/25 06:02:48;;;;;;;11.88;6.65;;;;;;;-0.09;100.00;96658.22;5011687;28;20010;-80
2021/01/25 06:05:40;;;;;;;9.98;6.40;;;;;;;-0.05;99.93;96651.25;5015144;28;20032;-77
2021/01/25 06:08:18;;;;;;;11.18;7.75;;;;;;;-0.13;100.00;96641.00;4999989;28;20030;-77
2021/01/25 06:11:08;;;;;;;7.43;5.18;;;;;;;-0.09;98.93;96655.53;5000182;28;20045;-77
2021/01/25 06:14:12;;;;;;;7.88;4.88;;;;;;;0.08;99.00;96658.03;4982251;28;20054;-82
2021/01/25 06:16:41;;;;;;;6.05;4.70;;;;;;;-0.11;97.04;96646.94;4962315;28;20053;-81
2021/01/25 06:19:08;;;;;;;9.73;5.95;;;;;;;-0.19;97.56;96636.66;4981510;28;20072;-76
2021/01/25 06:21:40;;;;;;;10.20;4.90;;;;;;;-0.20;97.07;96640.44;5003576;28;20030;-78
2021/01/25 06:24:07;;;;;;;4.70;3.92;;;;;;;-0.09;97.66;96657.41;5001360;28;20025;-76
2021/01/25 06:26:34;;;;;;;9.60;5.88;;;;;;;-0.01;97.15;96638.94;4985039;28;20029;-76
2021/01/25 06:29:09;;;;;;;8.50;4.63;;;;;;;0.06;97.40;96646.75;4983474;28;20459;-76
2021/01/25 06:31:40;;;;;;;8.43;5.55;;;;;;;-0.06;97.36;96652.31;4999308;28;20026;-75
2021/01/25 06:34:12;;;;;;;6.53;4.78;;;;;;;-0.16;97.93;96663.00;5002780;28;20026;-76
2021/01/25 06:36:41;;;;;;;8.73;5.50;;;;;;;-0.04;97.69;96660.13;4984707;28;20367;-77
2021/01/25 06:39:07;;;;;;;9.13;4.88;;;;;;;0.04;96.64;96661.50;4984324;28;20034;-77
2021/01/25 06:41:41;;;;;;;7.63;5.82;;;;;;;-0.06;97.12;96660.38;4985168;28;20597;-77
2021/01/25 06:44:09;;;;;;;6.80;4.78;;;;;;;-0.11;96.46;96640.72;4997741;28;20176;-74
2021/01/25 06:46:37;;;;;;;5.90;5.00;;;;;;;-0.08;96.13;96654.47;4974819;28;20068;-74
2021/01/25 06:49:05;;;;;;;8.52;6.07;;;;;;;-0.03;97.49;96640.22;4994458;28;20029;-74
2021/01/25 06:51:31;;;;;;;8.18;6.22;;;;;;;-0.03;97.53;96649.09;5002850;28;20448;-75
2021/01/25 06:54:00;;;;;;;11.30;7.97;;;;;;;-0.02;97.77;96642.66;4995454;28;20164;-75
2021/01/25 06:56:25;;;;;;;10.73;6.68;;;;;;;-0.10;97.64;96647.75;4985648;28;20037;-73
2021/01/25 06:58:51;;;;;;;8.73;6.15;;;;;;;-0.01;98.75;96647.00;5034036;28;20030;-88
2021/01/25 07:01:22;;;;;;;11.07;6.78;;;;;;;-0.07;98.12;96613.09;4982165;28;20111;-74
2021/01/25 07:03:55;;;;;;;11.73;7.15;;;;;;;-0.06;96.85;96643.44;4993236;28;20179;-79
2021/01/25 07:06:21;;;;;;;8.88;6.05;;;;;;;-0.07;96.93;96645.34;4994163;28;20038;-76
2021/01/25 07:09:07;;;;;;;17.27;7.55;;;;;;;-0.16;96.64;96636.13;4992626;28;20041;-75
2021/01/25 07:11:35;;;;;;;9.73;6.97;;;;;;;0.06;96.05;96645.94;5006614;28;20043;-75
2021/01/25 07:14:02;;;;;;;12.25;7.38;;;;;;;0.06;96.39;96637.88;4993695;28;20054;-77
2021/01/25 07:16:28;;;;;;;8.07;5.43;;;;;;;-0.08;96.34;96649.09;4991111;28;20107;-77
2021/01/25 07:18:54;;;;;;;11.07;5.28;;;;;;;0.05;95.90;96658.56;4973118;28;20469;-75
2021/01/25 07:21:22;;;;;;;6.07;5.43;;;;;;;0.16;95.99;96654.06;4989673;28;20033;-76
2021/01/25 07:23:49;;;;;;;8.18;5.82;;;;;;;0.25;96.41;96664.03;4973236;28;20057;-75
2021/01/25 07:26:17;;;;;;;10.20;5.97;;;;;;;0.47;96.98;96671.94;4972597;28;20050;-77
2021/01/25 07:29:09;;;;;;;10.98;7.22;;;;;;;0.48;97.19;96684.31;4972664;28;20838;-80
2021/01/25 07:31:35;;;;;;;11.05;7.00;;;;;;;0.33;97.05;96650.09;4971906;28;20030;-76
2021/01/25 07:34:01;;;;;;;8.68;5.28;;;;;;;0.31;95.56;96663.00;4990185;28;20046;-75
2021/01/25 07:36:26;;;;;;;7.05;5.28;;;;;;;0.31;94.97;96678.31;5002688;28;20017;-75
2021/01/25 07:38:52;;;;;;;10.18;7.03;;;;;;;0.42;96.22;96678.09;5003859;28;20041;-82
2021/01/25 07:41:17;;;;;;;;;;;;;;;0.58;97.05;96657.47;4982749;28;20014;-75
2021/01/25 07:43:44;;;;;;;9.10;6.63;;;;;;;0.30;97.09;96657.88;5009726;28;19917;-89
2021/01/25 07:46:10;;;;;;;9.70;4.80;;;;;;;0.27;96.53;96644.97;4996543;28;20057;-78
2021/01/25 07:48:48;;;;;;;10.35;6.43;;;;;;;0.47;97.70;96658.50;4988521;28;20007;-76
2021/01/25 07:51:20;;;;;;;10.85;7.05;;;;;;;0.58;98.79;96662.03;4971395;28;20121;-74
2021/01/25 07:53:46;;;;;;;9.38;6.32;;;;;;;0.63;98.08;96665.53;4971403;28;20022;-76
2021/01/25 07:56:17;;;;;;;7.97;6.78;;;;;;;0.65;98.64;96658.03;4971413;28;20479;-76
2021/01/25 07:58:42;;;;;;;8.70;6.55;;;;;;;0.90;98.12;96673.44;4971551;28;20046;-75
2021/01/25 08:01:23;;;;;;;10.90;6.10;;;;;;;0.73;97.52;96670.13;4972780;28;20018;-75
2021/01/25 08:03:54;;;;;;;8.57;6.03;;;;;;;0.58;96.50;96651.25;4989170;28;20026;-78
2021/01/25 08:06:19;;;;;;;11.02;6.15;;;;;;;0.65;97.51;96674.16;4988547;28;20037;-76
2021/01/25 08:08:47;;;;;;;8.95;6.65;;;;;;;0.40;97.46;96649.88;4972677;28;20031;-75
2021/01/25 08:11:13;;;;;;;10.68;7.28;;;;;;;0.65;98.43;96674.16;4972265;28;20041;-75
2021/01/25 08:13:53;;;;;;;8.98;5.57;;;;;;;0.53;98.06;96671.69;4972641;28;20081;-75
2021/01/25 08:16:22;;;;;;;11.70;7.13;;;;;;;0.72;97.52;96677.38;4990204;28;20400;-74
2021/01/25 08:19:10;;;;;;;12.57;6.85;;;;;;;0.59;97.46;96682.47;4989599;28;20081;-74
2021/01/25 08:21:54;;;;;;;11.32;7.18;;;;;;;0.41;97.13;96667.59;4990007;28;20023;-75
2021/01/25 08:24:20;;;;;;;10.38;7.28;;;;;;;0.33;97.14;96662.72;4990406;28;20030;-75
2021/01/25 08:26:46;;;;;;;12.60;7.60;;;;;;;0.31;97.18;96656.81;4972394;28;20034;-76
2021/01/25 08:29:27;;;;;;;10.93;6.40;;;;;;;0.50;98.34;96676.81;4972834;28;20030;-75
2021/01/25 08:31:52;;;;;;;12.30;8.57;;;;;;;0.71;97.34;96670.41;4991736;28;20077;-75
2021/01/25 08:34:29;;;;;;;9.00;6.32;;;;;;;0.79;96.51;96669.88;4993508;28;20031;-75
2021/01/25 08:37:24;;;;;;;11.73;8.05;;;;;;;0.80;95.26;96676.91;4991970;28;20462;-75
2021/01/25 08:39:49;;;;;;;14.18;6.25;;;;;;;0.74;95.31;96679.84;5011214;28;20400;-75
2021/01/25 08:42:18;;;;;;;11.82;6.95;;;;;;;0.61;93.68;96650.72;4994235;28;20049;-75
2021/01/25 08:45:01;;;;;;;8.32;5.88;;;;;;;0.90;94.36;96674.25;4979298;28;20121;-75
2021/01/25 08:47:32;;;;;;;11.85;6.40;;;;;;;0.77;93.74;96669.34;4975980;28;20399;-75
2021/01/25 08:49:59;;;;;;;10.45;6.63;;;;;;;0.76;94.61;96674.97;4975151;28;20081;-75
2021/01/25 08:52:39;;;;;;;9.23;6.45;;;;;;;0.77;94.33;96668.53;4993311;28;20681;-79
2021/01/25 08:55:11;;;;;;;10.65;5.88;;;;;;;0.82;94.31;96669.34;4984081;28;20033;-75
2021/01/25 08:57:40;;;;;;;13.35;7.43;;;;;;;0.63;92.20;96652.06;5001650;28;20022;-75
2021/01/25 09:00:11;;;;;;;16.73;9.40;;;;;;;0.87;93.32;96661.31;5000098;28;20030;-75
2021/01/25 09:02:36;;;;;;;11.93;6.07;;;;;;;1.03;93.05;96657.56;5003239;28;20085;-74
2021/01/25 09:05:02;;;;;;;8.15;6.22;;;;;;;1.02;93.25;96658.66;4983043;28;20030;-75
2021/01/25 09:07:28;;;;;;;8.18;5.22;;;;;;;1.15;92.54;96656.50;4983214;28;20110;-75
2021/01/25 09:09:53;;;;;;;;;;;;;;;1.12;93.33;96674.00;4986023;28;20038;-75
2021/01/25 09:12:19;;;;;;;14.27;7.70;;;;;;;1.05;93.15;96670.75;5001367;28;19924;-75
2021/01/25 09:14:46;;;;;;;18.27;9.23;;;;;;;1.21;93.56;96666.22;4999936;28;20038;-76
2021/01/25 09:17:13;;;;;;;10.60;7.13;;;;;;;1.39;93.36;96668.38;5001412;28;20030;-76
2021/01/25 09:19:39;;;;;;;13.98;8.82;;;;;;;1.24;91.04;96676.44;5003830;28;20105;-75
2021/01/25 09:22:06;;;;;;;11.23;6.10;;;;;;;1.17;92.47;96668.63;5003842;28;20080;-76
2021/01/25 09:24:31;;;;;;;11.32;7.88;;;;;;;1.37;91.97;96689.38;5002172;28;20487;-77
2021/01/25 09:26:57;;;;;;;14.52;7.72;;;;;;;1.41;92.34;96693.94;4981209;28;20034;-76
2021/01/25 09:29:22;;;;;;;;;;;;;;;1.29;92.06;96687.22;4993981;28;20044;-75
2021/01/25 09:31:48;;;;;;;13.48;6.93;;;;;;;1.20;91.54;96702.28;4993839;28;20367;-74
2021/01/25 09:34:13;;;;;;;7.88;5.95;;;;;;;1.44;91.74;96698.03;4976438;28;20046;-75
2021/01/25 09:36:38;;;;;;;10.52;6.75;;;;;;;1.63;92.07;96693.69;4978005;28;20022;-76
2021/01/25 09:39:06;;;;;;;10.13;7.30;;;;;;;1.70;91.10;96706.91;4995025;28;20080;-76
2021/01/25 09:41:32;;;;;;;10.70;6.32;;;;;;;1.42;92.04;96703.66;4987475;28;20045;-75
2021/01/25 09:43:57;;;;;;;10.05;6.88;;;;;;;1.29;91.97;96709.56;4987661;28;20034;-76
2021/01/25 09:46:23;;;;;;;11.15;6.82;;;;;;;1.36;90.78;96717.38;4995688;28;20029;-74
2021/01/25 09:48:48;;;;;;;10.05;7.72;;;;;;;1.37;91.59;96708.25;4994338;28;20545;-75
2021/01/25 09:51:14;;;;;;;12.13;6.20;;;;;;;1.45;91.59;96721.16;4993846;28;20501;-74
2021/01/25 09:53:39;;;;;;;;;;;;;;;1.37;89.92;96719.00;4994647;28;20249;-75
2021/01/25 09:56:05;;;;;;;9.60;5.20;;;;;;;1.15;89.62;96713.88;4994006;28;19917;-77
2021/01/25 09:58:32;;;;;;;;;;;;;;;1.24;89.55;96716.84;4993975;28;20026;-75
2021/01/25 10:00:57;;;;;;;9.18;5.55;;;;;;;1.52;90.44;96716.34;5011386;28;19917;-75
2021/01/25 10:03:23;;;;;;;8.32;6.05;;;;;;;1.85;89.50;96699.63;5011580;28;20399;-77
2021/01/25 10:05:48;;;;;;;;;;;;;;;1.89;87.39;96705.28;4994382;28;20065;-75
2021/01/25 10:08:13;;;;;;;10.23;6.20;;;;;;;1.77;86.66;96708.25;4993818;28;20027;-75
2021/01/25 10:10:39;;;;;;;;;;;;;;;1.95;87.12;96706.88;5011841;28;20041;-75
2021/01/25 10:13:05;;;;;;;10.27;6.07;;;;;;;1.93;85.34;96690.19;4993779;28;20093;-76
2021/01/25 10:15:33;;;;;;;9.27;5.57;;;;;;;2.11;84.19;96695.00;4993728;28;20049;-78
2021/01/25 10:17:59;;;;;;;8.60;6.28;;;;;;;1.69;83.23;96679.16;4994036;28;20111;-76
2021/01/25 10:20:24;;;;;;;10.27;6.05;;;;;;;1.68;84.87;96679.41;5011469;28;20084;-76
2021/01/25 10:22:50;;;;;;;10.30;5.93;;;;;;;1.34;85.19;96663.00;4993493;28;20439;-75
2021/01/25 10:25:16;;;;;;;10.18;7.28;;;;;;;1.41;85.40;96671.63;4991569;28;20488;-76
2021/01/25 10:27:41;;;;;;;7.60;5.10;;;;;;;1.38;85.78;96650.63;4974013;28;20026;-77
2021/01/25 10:30:10;;;;;;;7.03;5.70;;;;;;;1.90;86.58;96661.88;4991379;28;20759;-76
2021/01/25 10:32:35;;;;;;;9.00;5.65;;;;;;;1.94;84.70;96662.94;4986567;28;20057;-78
2021/01/25 10:35:01;;;;;;;9.02;6.15;;;;;;;1.97;85.88;96659.69;4984747;28;20027;-75
2021/01/25 10:37:27;;;;;;;7.55;4.72;;;;;;;2.01;82.57;96676.13;4991213;28;20023;-77
2021/01/25 10:39:52;;;;;;;6.35;4.60;;;;;;;2.16;80.91;96668.81;4973552;28;20709;-75
2021/01/25 10:42:18;;;;;;;8.10;4.53;;;;;;;2.57;81.93;96660.59;4990625;28;20034;-76
2021/01/25 10:44:44;;;;;;;8.25;5.53;;;;;;;2.43;80.18;96646.09;4988119;28;20033;-75
2021/01/25 10:47:13;;;;;;;6.88;4.82;;;;;;;2.80;82.07;96657.25;5011001;28;20112;-75
2021/01/25 10:49:39;;;;;;;9.35;6.05;;;;;;;2.79;79.41;96661.03;5008769;28;20089;-75
2021/01/25 10:52:04;;;;;;;14.13;5.80;;;;;;;2.23;79.57;96667.72;4973505;28;20555;-75
2021/01/25 10:54:29;;;;;;;8.23;5.15;;;;;;;2.43;80.49;96632.59;4990290;28;20057;-76
2021/01/25 10:56:55;;;;;;;8.40;5.13;;;;;;;2.54;80.44;96648.47;4973363;28;20018;-79
2021/01/25 10:59:20;;;;;;;9.32;5.03;;;;;;;2.36;80.12;96642.88;4991005;28;20023;-76
2021/01/25 11:01:46;;;;;;;8.38;5.63;;;;;;;2.15;81.81;96636.75;4973283;28;20400;-76
2021/01/25 11:04:12;;;;;;;;;;;;;;;2.37;81.52;96649.91;4977828;28;20116;-75
2021/01/25 11:06:38;;;;;;;8.63;5.05;;;;;;;2.17;81.31;96643.47;4990717;28;20371;-74
2021/01/25 11:09:03;;;;;;;;;;;;;;;1.98;81.06;96639.75;4972959;28;20045;-75
2021/01/25 11:11:29;;;;;;;6.68;4.15;;;;;;;1.80;81.61;96637.63;4989857;28;20330;-76
2021/01/25 11:13:54;;;;;;;8.65;5.30;;;;;;;2.10;82.38;96645.66;4990575;28;20038;-74
2021/01/25 11:16:19;;;;;;;10.73;5.97;;;;;;;2.36;80.58;96619.41;4990190;28;20037;-76
2021/01/25 11:18:45;;;;;;;7.38;4.97;;;;;;;2.40;80.30;96590.00;4989546;28;20070;-76
2021/01/25 11:21:10;;;;;;;7.13;5.03;;;;;;;2.74;80.76;96615.19;4990146;28;20034;-76
2021/01/25 11:23:36;;;;;;;;;;;;;;;2.94;77.91;96606.97;4973627;28;20037;-76
2021/01/25 11:26:02;;;;;;;6.15;4.60;;;;;;;3.26;75.88;96602.97;4997909;28;20008;-74
2021/01/25 11:28:28;;;;;;;10.23;5.40;;;;;;;3.69;74.25;96588.53;4993315;28;20034;-77
2021/01/25 11:30:55;;;;;;;6.78;4.88;;;;;;;3.74;73.32;96599.28;4992143;28;20026;-74
2021/01/25 11:33:21;;;;;;;9.57;5.38;;;;;;;3.09;74.78;96587.16;5009361;28;20034;-74
2021/01/25 11:35:46;;;;;;;7.88;4.55;;;;;;;3.18;75.90;96588.97;4991726;28;20042;-74
2021/01/25 11:38:12;;;;;;;10.57;5.22;;;;;;;3.21;76.73;96591.09;5009752;28;20037;-76